sensor_id;sensor_type;location;lat;lon;timestamp;pressure;altitude;pressure_sealevel;temperature;humidity
68580;BME280;55555;52.136;5.424;2022-08-05T00:01:29;101635.50;;;20.14;69.40
68580;BME280;55555;52.136;5.424;2022-08-05T00:04:14;101640.97;;;20.14;68.75
68580;BME280;55555;52.136;5.424;2022-08-05T00:06:44;101647.44;;;20.03;69.64
68580;BME280;55555;52.136;5.424;2022-08-05T00:09:12;101649.03;;;19.99;69.66
68580;BME280;55555;52.136;5.424;2022-08-05T00:11:44;101654.50;;;19.99;69.96
68580;BME280;55555;52.136;5.424;2022-08-05T00:14:21;101652.91;;;20.03;69.39
68580;BME280;55555;52.136;5.424;2022-08-05T00:16:54;101656.03;;;19.90;70.50
68580;BME280;55555;52.136;5.424;2022-08-05T00:19:22;101657.75;;;19.96;70.04
68580;BME280;55555;52.136;5.424;2022-08-05T00:22:09;101645.22;;;20.00;69.48
68580;BME280;55555;52.136;5.424;2022-08-05T00:24:37;101648.47;;;19.97;69.34
68580;BME280;55555;52.136;5.424;2022-08-05T00:27:08;101640.78;;;19.94;69.48
68580;BME280;55555;52.136;5.424;2022-08-05T00:29:41;101641.59;;;19.95;69.63
68580;BME280;55555;52.136;5.424;2022-08-05T00:32:08;101638.03;;;19.94;68.88
68580;BME280;55555;52.136;5.424;2022-08-05T00:34:42;101637.16;;;19.89;70.02
68580;BME280;55555;52.136;5.424;2022-08-05T00:37:30;101630.34;;;19.91;69.62
68580;BME280;55555;52.136;5.424;2022-08-05T00:40:18;101623.94;;;19.80;70.31
68580;BME280;55555;52.136;5.424;2022-08-05T00:42:53;101638.94;;;19.78;70.46
68580;BME280;55555;52.136;5.424;2022-08-05T00:45:25;101641.16;;;19.81;70.29
68580;BME280;55555;52.136;5.424;2022-08-05T00:48:11;101646.06;;;19.79;69.92
68580;BME280;55555;52.136;5.424;2022-08-05T00:50:56;101631.28;;;19.75;70.29
68580;BME280;55555;52.136;5.424;2022-08-05T00:53:23;101638.38;;;19.76;69.96
68580;BME280;55555;52.136;5.424;2022-08-05T00:56:11;101642.09;;;19.65;70.61
68580;BME280;55555;52.136;5.424;2022-08-05T00:58:43;101649.41;;;19.59;71.22
68580;BME280;55555;52.136;5.424;2022-08-05T01:01:11;101655.84;;;19.70;70.50
68580;BME280;55555;52.136;5.424;2022-08-05T01:03:50;101648.91;;;19.62;70.80
68580;BME280;55555;52.136;5.424;2022-08-05T01:06:17;101642.03;;;19.60;70.58
68580;BME280;55555;52.136;5.424;2022-08-05T01:08:44;101636.00;;;19.58;70.26
68580;BME280;55555;52.136;5.424;2022-08-05T01:11:17;101638.94;;;19.51;70.44
68580;BME280;55555;52.136;5.424;2022-08-05T01:14:11;101642.81;;;19.55;70.54
68580;BME280;55555;52.136;5.424;2022-08-05T01:16:57;101640.34;;;19.54;70.18
68580;BME280;55555;52.136;5.424;2022-08-05T01:19:34;101655.34;;;19.51;70.62
68580;BME280;55555;52.136;5.424;2022-08-05T01:26:17;101649.44;;;19.42;70.73
68580;BME280;55555;52.136;5.424;2022-08-05T01:29:04;101654.91;;;19.42;70.34
68580;BME280;55555;52.136;5.424;2022-08-05T01:31:39;101655.44;;;19.39;70.93
68580;BME280;55555;52.136;5.424;2022-08-05T01:34:17;101649.97;;;19.39;71.15
68580;BME280;55555;52.136;5.424;2022-08-05T01:37:02;101656.25;;;19.40;70.73
68580;BME280;55555;52.136;5.424;2022-08-05T01:39:51;101652.63;;;19.34;71.47
68580;BME280;55555;52.136;5.424;2022-08-05T01:42:25;101653.13;;;19.31;71.72
68580;BME280;55555;52.136;5.424;2022-08-05T01:44:58;101658.59;;;19.31;71.34
68580;BME280;55555;52.136;5.424;2022-08-05T01:47:30;101666.03;;;19.36;71.41
68580;BME280;55555;52.136;5.424;2022-08-05T01:50:11;101679.44;;;19.37;71.07
68580;BME280;55555;52.136;5.424;2022-08-05T01:52:45;101679.94;;;19.34;71.30
68580;BME280;55555;52.136;5.424;2022-08-05T01:55:16;101681.03;;;19.33;71.09
68580;BME280;55555;52.136;5.424;2022-08-05T01:57:47;101674.41;;;19.29;71.88
68580;BME280;55555;52.136;5.424;2022-08-05T02:00:37;101667.81;;;19.25;72.22
68580;BME280;55555;52.136;5.424;2022-08-05T02:03:26;101665.59;;;19.22;72.31
68580;BME280;55555;52.136;5.424;2022-08-05T02:06:05;101668.06;;;19.24;71.96
68580;BME280;55555;52.136;5.424;2022-08-05T02:08:53;101673.41;;;19.13;72.77
68580;BME280;55555;52.136;5.424;2022-08-05T02:11:26;101667.28;;;19.28;71.92
68580;BME280;55555;52.136;5.424;2022-08-05T02:14:39;101676.53;;;19.22;72.22
68580;BME280;55555;52.136;5.424;2022-08-05T02:17:21;101656.59;;;19.22;72.16
68580;BME280;55555;52.136;5.424;2022-08-05T02:20:18;101656.75;;;19.15;73.01
68580;BME280;55555;52.136;5.424;2022-08-05T02:22:55;101661.16;;;19.16;73.02
68580;BME280;55555;52.136;5.424;2022-08-05T02:25:30;101666.63;;;19.16;72.94
68580;BME280;55555;52.136;5.424;2022-08-05T02:28:18;101665.22;;;19.13;72.47
68580;BME280;55555;52.136;5.424;2022-08-05T02:30:59;101673.75;;;19.00;73.79
68580;BME280;55555;52.136;5.424;2022-08-05T02:34:07;101655.78;;;19.04;73.24
68580;BME280;55555;52.136;5.424;2022-08-05T02:36:42;101658.19;;;19.01;73.61
68580;BME280;55555;52.136;5.424;2022-08-05T02:39:17;101663.66;;;19.01;73.46
68580;BME280;55555;52.136;5.424;2022-08-05T02:41:47;101660.44;;;19.04;72.54
68580;BME280;55555;52.136;5.424;2022-08-05T02:44:27;101645.63;;;19.00;73.12
68580;BME280;55555;52.136;5.424;2022-08-05T02:46:57;101651.00;;;18.95;73.04
68580;BME280;55555;52.136;5.424;2022-08-05T02:49:30;101652.00;;;18.89;73.45
68580;BME280;55555;52.136;5.424;2022-08-05T02:52:23;101649.03;;;18.90;73.80
68580;BME280;55555;52.136;5.424;2022-08-05T02:54:56;101646.13;;;18.80;74.18
68580;BME280;55555;52.136;5.424;2022-08-05T02:57:30;101650.28;;;18.82;73.47
68580;BME280;55555;52.136;5.424;2022-08-05T03:00:18;101647.28;;;18.84;73.60
68580;BME280;55555;52.136;5.424;2022-08-05T03:02:46;101643.31;;;18.75;74.55
68580;BME280;55555;52.136;5.424;2022-08-05T03:05:14;101641.34;;;18.87;73.37
68580;BME280;55555;52.136;5.424;2022-08-05T03:07:47;101641.50;;;18.80;73.73
68580;BME280;55555;52.136;5.424;2022-08-05T03:10:34;101657.06;;;18.80;74.39
68580;BME280;55555;52.136;5.424;2022-08-05T03:13:10;101651.28;;;18.76;74.14
68580;BME280;55555;52.136;5.424;2022-08-05T03:15:46;101653.75;;;18.78;74.34
68580;BME280;55555;52.136;5.424;2022-08-05T03:18:17;101646.31;;;18.73;74.44
68580;BME280;55555;52.136;5.424;2022-08-05T03:20:55;101656.94;;;18.70;74.57
68580;BME280;55555;52.136;5.424;2022-08-05T03:23:22;101660.72;;;18.69;74.61
68580;BME280;55555;52.136;5.424;2022-08-05T03:25:50;101664.78;;;18.66;75.08
68580;BME280;55555;52.136;5.424;2022-08-05T03:28:37;101663.75;;;18.72;74.04
68580;BME280;55555;52.136;5.424;2022-08-05T03:31:04;101659.47;;;18.76;73.74
68580;BME280;55555;52.136;5.424;2022-08-05T03:33:31;101646.31;;;18.73;74.79
68580;BME280;55555;52.136;5.424;2022-08-05T03:36:18;101645.75;;;18.71;73.73
68580;BME280;55555;52.136;5.424;2022-08-05T03:38:56;101653.38;;;18.69;74.16
68580;BME280;55555;52.136;5.424;2022-08-05T03:41:23;101653.63;;;18.68;74.24
68580;BME280;55555;52.136;5.424;2022-08-05T03:43:58;101657.59;;;18.60;75.43
68580;BME280;55555;52.136;5.424;2022-08-05T03:46:37;101651.28;;;18.60;75.02
68580;BME280;55555;52.136;5.424;2022-08-05T03:49:04;101652.59;;;18.57;75.32
68580;BME280;55555;52.136;5.424;2022-08-05T03:51:35;101654.75;;;18.55;75.53
68580;BME280;55555;52.136;5.424;2022-08-05T03:54:51;101656.72;;;18.60;75.08
68580;BME280;55555;52.136;5.424;2022-08-05T03:57:42;101663.44;;;18.52;75.41
68580;BME280;55555;52.136;5.424;2022-08-05T04:00:13;101668.06;;;18.51;75.29
68580;BME280;55555;52.136;5.424;2022-08-05T04:02:47;101661.78;;;18.51;75.53
68580;BME280;55555;52.136;5.424;2022-08-05T04:05:25;101667.81;;;18.53;75.13
68580;BME280;55555;52.136;5.424;2022-08-05T04:08:03;101668.78;;;18.47;75.85
68580;BME280;55555;52.136;5.424;2022-08-05T04:10:53;101668.22;;;18.45;75.88
68580;BME280;55555;52.136;5.424;2022-08-05T04:13:20;101660.53;;;18.42;76.65
68580;BME280;55555;52.136;5.424;2022-08-05T04:15:48;101664.00;;;18.37;76.50
68580;BME280;55555;52.136;5.424;2022-08-05T04:18:29;101659.13;;;18.39;76.18
68580;BME280;55555;52.136;5.424;2022-08-05T04:21:00;101664.56;;;18.39;76.10
68580;BME280;55555;52.136;5.424;2022-08-05T04:23:29;101661.00;;;18.39;76.30
68580;BME280;55555;52.136;5.424;2022-08-05T04:26:17;101669.94;;;18.34;75.98
68580;BME280;55555;52.136;5.424;2022-08-05T04:28:44;101675.06;;;18.31;77.13
68580;BME280;55555;52.136;5.424;2022-08-05T04:31:17;101672.44;;;18.36;76.31
68580;BME280;55555;52.136;5.424;2022-08-05T04:33:45;101671.75;;;18.29;75.64
68580;BME280;55555;52.136;5.424;2022-08-05T04:36:32;101677.44;;;18.27;76.87
68580;BME280;55555;52.136;5.424;2022-08-05T04:39:14;101678.47;;;18.38;75.00
68580;BME280;55555;52.136;5.424;2022-08-05T04:41:43;101672.09;;;18.32;75.15
68580;BME280;55555;52.136;5.424;2022-08-05T04:44:13;101671.75;;;18.29;75.97
68580;BME280;55555;52.136;5.424;2022-08-05T04:46:49;101674.22;;;18.30;76.00
68580;BME280;55555;52.136;5.424;2022-08-05T04:49:18;101669.50;;;18.26;76.48
68580;BME280;55555;52.136;5.424;2022-08-05T04:51:50;101668.94;;;18.24;76.44
68580;BME280;55555;52.136;5.424;2022-08-05T04:54:25;101671.06;;;18.22;75.77
68580;BME280;55555;52.136;5.424;2022-08-05T04:56:53;101677.22;;;18.29;75.54
68580;BME280;55555;52.136;5.424;2022-08-05T04:59:25;101678.28;;;18.28;75.50
68580;BME280;55555;52.136;5.424;2022-08-05T05:02:06;101664.16;;;18.31;74.83
68580;BME280;55555;52.136;5.424;2022-08-05T05:04:53;101669.03;;;18.29;75.56
68580;BME280;55555;52.136;5.424;2022-08-05T05:07:29;101674.47;;;18.29;75.25
68580;BME280;55555;52.136;5.424;2022-08-05T05:09:58;101682.09;;;18.27;75.83
68580;BME280;55555;52.136;5.424;2022-08-05T05:12:29;101686.72;;;18.26;76.06
68580;BME280;55555;52.136;5.424;2022-08-05T05:14:56;101684.97;;;18.20;76.11
68580;BME280;55555;52.136;5.424;2022-08-05T05:17:23;101679.84;;;18.24;76.13
68580;BME280;55555;52.136;5.424;2022-08-05T05:20:11;101684.22;;;18.25;75.79
68580;BME280;55555;52.136;5.424;2022-08-05T05:22:39;101689.09;;;18.23;75.25
68580;BME280;55555;52.136;5.424;2022-08-05T05:25:09;101682.09;;;18.27;75.27
68580;BME280;55555;52.136;5.424;2022-08-05T05:27:42;101686.47;;;18.28;75.94
68580;BME280;55555;52.136;5.424;2022-08-05T05:30:21;101687.03;;;18.30;76.01
68580;BME280;55555;52.136;5.424;2022-08-05T05:32:59;101693.66;;;18.34;75.57
68580;BME280;55555;52.136;5.424;2022-08-05T05:35:43;101687.13;;;18.35;76.16
68580;BME280;55555;52.136;5.424;2022-08-05T05:38:10;101688.88;;;18.41;75.52
68580;BME280;55555;52.136;5.424;2022-08-05T05:40:39;101687.81;;;18.42;75.20
68580;BME280;55555;52.136;5.424;2022-08-05T05:43:18;101684.50;;;18.40;75.60
68580;BME280;55555;52.136;5.424;2022-08-05T05:46:05;101684.59;;;18.45;74.95
68580;BME280;55555;52.136;5.424;2022-08-05T05:48:41;101681.88;;;18.45;75.59
68580;BME280;55555;52.136;5.424;2022-08-05T05:51:09;101693.94;;;18.49;74.91
68580;BME280;55555;52.136;5.424;2022-08-05T05:53:41;101696.00;;;18.42;75.53
68580;BME280;55555;52.136;5.424;2022-08-05T05:56:24;101696.44;;;18.50;75.39
68580;BME280;55555;52.136;5.424;2022-08-05T05:59:05;101691.63;;;18.58;74.75
68580;BME280;55555;52.136;5.424;2022-08-05T06:01:37;101694.72;;;18.61;75.09
68580;BME280;55555;52.136;5.424;2022-08-05T06:04:22;101701.09;;;18.67;74.80
68580;BME280;55555;52.136;5.424;2022-08-05T06:06:49;101703.25;;;18.65;75.01
68580;BME280;55555;52.136;5.424;2022-08-05T06:09:17;101709.69;;;18.75;74.23
68580;BME280;55555;52.136;5.424;2022-08-05T06:11:53;101707.44;;;18.72;74.32
68580;BME280;55555;52.136;5.424;2022-08-05T06:14:30;101703.47;;;18.80;73.45
68580;BME280;55555;52.136;5.424;2022-08-05T06:16:59;101704.47;;;18.91;73.85
68580;BME280;55555;52.136;5.424;2022-08-05T06:19:47;101709.16;;;19.12;71.98
68580;BME280;55555;52.136;5.424;2022-08-05T06:22:32;101709.38;;;19.27;70.53
68580;BME280;55555;52.136;5.424;2022-08-05T06:25:02;101717.84;;;19.47;72.11
68580;BME280;55555;52.136;5.424;2022-08-05T06:27:49;101716.09;;;19.80;69.81
68580;BME280;55555;52.136;5.424;2022-08-05T06:30:36;101718.25;;;19.78;69.69
68580;BME280;55555;52.136;5.424;2022-08-05T06:33:03;101709.00;;;20.06;67.74
68580;BME280;55555;52.136;5.424;2022-08-05T06:35:35;101720.59;;;20.40;69.00
68580;BME280;55555;52.136;5.424;2022-08-05T06:38:22;101717.28;;;20.65;67.96
68580;BME280;55555;52.136;5.424;2022-08-05T06:41:03;101720.56;;;21.04;64.42
68580;BME280;55555;52.136;5.424;2022-08-05T06:43:33;101725.69;;;21.32;64.54
68580;BME280;55555;52.136;5.424;2022-08-05T06:46:21;101728.09;;;21.66;63.02
68580;BME280;55555;52.136;5.424;2022-08-05T06:48:55;101722.09;;;21.84;63.15
68580;BME280;55555;52.136;5.424;2022-08-05T06:51:24;101718.38;;;22.10;60.56
68580;BME280;55555;52.136;5.424;2022-08-05T06:53:59;101717.88;;;22.39;60.32
68580;BME280;55555;52.136;5.424;2022-08-05T06:56:28;101727.78;;;22.50;60.16
68580;BME280;55555;52.136;5.424;2022-08-05T06:59:00;101727.78;;;22.35;60.09
68580;BME280;55555;52.136;5.424;2022-08-05T07:01:33;101734.94;;;22.66;58.17
68580;BME280;55555;52.136;5.424;2022-08-05T07:04:02;101737.41;;;22.88;58.98
68580;BME280;55555;52.136;5.424;2022-08-05T07:06:29;101744.28;;;22.96;57.53
68580;BME280;55555;52.136;5.424;2022-08-05T07:08:57;101748.66;;;23.12;57.62
68580;BME280;55555;52.136;5.424;2022-08-05T07:11:29;101740.97;;;22.89;56.49
68580;BME280;55555;52.136;5.424;2022-08-05T07:14:02;101749.19;;;22.53;55.89
68580;BME280;55555;52.136;5.424;2022-08-05T07:16:56;101755.78;;;22.42;58.59
68580;BME280;55555;52.136;5.424;2022-08-05T07:19:48;101755.28;;;23.11;57.83
68580;BME280;55555;52.136;5.424;2022-08-05T07:22:37;101760.72;;;22.55;58.21
68580;BME280;55555;52.136;5.424;2022-08-05T07:25:07;101773.72;;;22.85;57.31
68580;BME280;55555;52.136;5.424;2022-08-05T07:27:55;101763.47;;;23.36;56.04
68580;BME280;55555;52.136;5.424;2022-08-05T07:30:34;101778.56;;;23.44;54.56
68580;BME280;55555;52.136;5.424;2022-08-05T07:33:06;101774.69;;;23.50;54.48
68580;BME280;55555;52.136;5.424;2022-08-05T07:35:41;101775.44;;;23.91;53.78
68580;BME280;55555;52.136;5.424;2022-08-05T07:38:29;101779.22;;;24.00;52.78
68580;BME280;55555;52.136;5.424;2022-08-05T07:41:08;101786.50;;;23.81;52.74
68580;BME280;55555;52.136;5.424;2022-08-05T07:43:58;101783.59;;;24.61;49.19
68580;BME280;55555;52.136;5.424;2022-08-05T07:46:28;101772.75;;;24.74;47.47
68580;BME280;55555;52.136;5.424;2022-08-05T07:48:59;101786.38;;;24.56;47.04
68580;BME280;55555;52.136;5.424;2022-08-05T07:51:34;101792.72;;;24.56;47.30
68580;BME280;55555;52.136;5.424;2022-08-05T07:54:19;101792.03;;;24.35;48.06
68580;BME280;55555;52.136;5.424;2022-08-05T07:56:57;101797.06;;;24.18;48.41
68580;BME280;55555;52.136;5.424;2022-08-05T07:59:43;101791.13;;;24.45;46.89
68580;BME280;55555;52.136;5.424;2022-08-05T08:02:14;101792.03;;;24.35;47.50
68580;BME280;55555;52.136;5.424;2022-08-05T08:04:47;101797.34;;;25.00;45.12
68580;BME280;55555;52.136;5.424;2022-08-05T08:07:16;101804.94;;;25.18;43.09
68580;BME280;55555;52.136;5.424;2022-08-05T08:09:47;101811.69;;;25.02;42.44
68580;BME280;55555;52.136;5.424;2022-08-05T08:12:19;101811.34;;;24.74;44.38
68580;BME280;55555;52.136;5.424;2022-08-05T08:15:07;101810.19;;;24.81;42.15
68580;BME280;55555;52.136;5.424;2022-08-05T08:17:42;101813.88;;;25.34;42.09
68580;BME280;55555;52.136;5.424;2022-08-05T08:20:18;101813.75;;;25.20;43.94
68580;BME280;55555;52.136;5.424;2022-08-05T08:23:06;101817.69;;;25.67;41.55
68580;BME280;55555;52.136;5.424;2022-08-05T08:25:53;101816.91;;;25.61;41.65
68580;BME280;55555;52.136;5.424;2022-08-05T08:28:26;101819.47;;;25.53;42.58
68580;BME280;55555;52.136;5.424;2022-08-05T08:31:07;101814.31;;;25.99;41.90
68580;BME280;55555;52.136;5.424;2022-08-05T08:33:40;101821.31;;;25.38;43.70
68580;BME280;55555;52.136;5.424;2022-08-05T08:36:09;101825.13;;;25.43;43.18
68580;BME280;55555;52.136;5.424;2022-08-05T08:38:56;101836.06;;;25.24;44.72
68580;BME280;55555;52.136;5.424;2022-08-05T08:41:25;101833.31;;;24.85;44.49
68580;BME280;55555;52.136;5.424;2022-08-05T08:44:14;101838.00;;;24.84;43.80
68580;BME280;55555;52.136;5.424;2022-08-05T08:47:06;101846.97;;;24.61;44.92
68580;BME280;55555;52.136;5.424;2022-08-05T08:49:56;101841.19;;;24.62;45.72
68580;BME280;55555;52.136;5.424;2022-08-05T08:52:48;101850.81;;;23.95;44.80
68580;BME280;55555;52.136;5.424;2022-08-05T08:55:19;101856.25;;;24.31;44.38
68580;BME280;55555;52.136;5.424;2022-08-05T08:58:08;101848.72;;;23.57;45.46
68580;BME280;55555;52.136;5.424;2022-08-05T09:00:39;101847.31;;;23.74;45.12
68580;BME280;55555;52.136;5.424;2022-08-05T09:03:09;101848.69;;;23.87;44.51
68580;BME280;55555;52.136;5.424;2022-08-05T09:05:45;101849.53;;;24.47;45.18
68580;BME280;55555;52.136;5.424;2022-08-05T09:08:33;101854.03;;;24.33;43.83
68580;BME280;55555;52.136;5.424;2022-08-05T09:11:02;101868.75;;;24.57;44.35
68580;BME280;55555;52.136;5.424;2022-08-05T09:13:33;101868.41;;;24.69;43.35
68580;BME280;55555;52.136;5.424;2022-08-05T09:16:21;101868.69;;;24.72;42.43
68580;BME280;55555;52.136;5.424;2022-08-05T09:18:52;101870.84;;;24.81;44.63
68580;BME280;55555;52.136;5.424;2022-08-05T09:21:20;101876.94;;;24.72;43.62
68580;BME280;55555;52.136;5.424;2022-08-05T09:24:09;101868.78;;;25.93;41.33
68580;BME280;55555;52.136;5.424;2022-08-05T09:26:40;101863.50;;;25.97;41.84
68580;BME280;55555;52.136;5.424;2022-08-05T09:29:12;101872.69;;;25.58;43.12
68580;BME280;55555;52.136;5.424;2022-08-05T09:32:00;101865.69;;;25.71;40.98
68580;BME280;55555;52.136;5.424;2022-08-05T09:34:53;101877.63;;;25.32;40.29
68580;BME280;55555;52.136;5.424;2022-08-05T09:37:25;101887.34;;;25.25;39.62
68580;BME280;55555;52.136;5.424;2022-08-05T09:40:36;101887.31;;;24.91;38.26
68580;BME280;55555;52.136;5.424;2022-08-05T09:43:29;101900.84;;;24.87;36.80
68580;BME280;55555;52.136;5.424;2022-08-05T09:46:28;101907.19;;;24.23;39.05
68580;BME280;55555;52.136;5.424;2022-08-05T09:48:58;101902.94;;;24.56;38.77
68580;BME280;55555;52.136;5.424;2022-08-05T09:51:44;101907.47;;;24.22;41.73
68580;BME280;55555;52.136;5.424;2022-08-05T09:54:16;101913.16;;;24.51;39.75
68580;BME280;55555;52.136;5.424;2022-08-05T09:56:55;101909.78;;;23.89;41.42
68580;BME280;55555;52.136;5.424;2022-08-05T09:59:23;101913.63;;;23.48;42.60
68580;BME280;55555;52.136;5.424;2022-08-05T10:01:53;101918.88;;;23.64;41.58
68580;BME280;55555;52.136;5.424;2022-08-05T10:04:33;101923.28;;;23.81;39.96
68580;BME280;55555;52.136;5.424;2022-08-05T10:07:04;101923.84;;;23.77;37.91
68580;BME280;55555;52.136;5.424;2022-08-05T10:09:54;101930.13;;;23.53;40.91
68580;BME280;55555;52.136;5.424;2022-08-05T10:12:42;101930.19;;;23.58;38.58
68580;BME280;55555;52.136;5.424;2022-08-05T10:15:19;101931.56;;;23.55;40.59
68580;BME280;55555;52.136;5.424;2022-08-05T10:18:13;101918.63;;;23.56;40.78
68580;BME280;55555;52.136;5.424;2022-08-05T10:23:20;101923.00;;;23.77;38.50
68580;BME280;55555;52.136;5.424;2022-08-05T10:26:11;101931.22;;;23.92;40.00
68580;BME280;55555;52.136;5.424;2022-08-05T10:28:41;101928.25;;;23.63;43.11
68580;BME280;55555;52.136;5.424;2022-08-05T10:31:12;101931.78;;;23.49;43.24
68580;BME280;55555;52.136;5.424;2022-08-05T10:34:00;101941.19;;;23.58;40.51
68580;BME280;55555;52.136;5.424;2022-08-05T10:36:29;101938.91;;;24.00;42.20
68580;BME280;55555;52.136;5.424;2022-08-05T10:39:02;101938.09;;;24.00;39.42
68580;BME280;55555;52.136;5.424;2022-08-05T10:42:09;101932.28;;;24.27;38.36
68580;BME280;55555;52.136;5.424;2022-08-05T10:44:45;101935.06;;;24.81;35.81
68580;BME280;55555;52.136;5.424;2022-08-05T10:47:13;101939.00;;;25.14;35.17
68580;BME280;55555;52.136;5.424;2022-08-05T10:50:07;101947.75;;;24.77;35.98
68580;BME280;55555;52.136;5.424;2022-08-05T10:52:59;101939.56;;;25.16;35.25
68580;BME280;55555;52.136;5.424;2022-08-05T10:55:26;101949.16;;;24.74;35.88
68580;BME280;55555;52.136;5.424;2022-08-05T10:58:16;101953.44;;;25.01;35.04
68580;BME280;55555;52.136;5.424;2022-08-05T11:00:46;101959.84;;;25.35;36.63
68580;BME280;55555;52.136;5.424;2022-08-05T11:03:20;101963.00;;;25.14;36.51
68580;BME280;55555;52.136;5.424;2022-08-05T11:06:09;101975.72;;;25.49;33.87
68580;BME280;55555;52.136;5.424;2022-08-05T11:09:51;101976.66;;;24.90;32.81
68580;BME280;55555;52.136;5.424;2022-08-05T11:15:15;101972.81;;;24.86;35.82
68580;BME280;55555;52.136;5.424;2022-08-05T11:20:46;101981.19;;;24.60;35.62
68580;BME280;55555;52.136;5.424;2022-08-05T11:26:29;101992.88;;;24.27;36.57
68580;BME280;55555;52.136;5.424;2022-08-05T11:29:03;101990.66;;;24.19;37.44
68580;BME280;55555;52.136;5.424;2022-08-05T11:31:40;101993.41;;;23.42;38.79
68580;BME280;55555;52.136;5.424;2022-08-05T11:34:40;101996.78;;;23.90;35.60
68580;BME280;55555;52.136;5.424;2022-08-05T11:40:55;102000.03;;;24.07;36.42
68580;BME280;55555;52.136;5.424;2022-08-05T11:43:29;102015.75;;;23.82;35.67
68580;BME280;55555;52.136;5.424;2022-08-05T11:46:17;102024.84;;;23.87;36.35
68580;BME280;55555;52.136;5.424;2022-08-05T11:49:00;102029.16;;;23.32;36.84
68580;BME280;55555;52.136;5.424;2022-08-05T11:51:29;102028.28;;;23.17;34.89
68580;BME280;55555;52.136;5.424;2022-08-05T11:54:26;102031.91;;;23.27;36.80
68580;BME280;55555;52.136;5.424;2022-08-05T11:57:02;102034.09;;;23.40;38.13
68580;BME280;55555;52.136;5.424;2022-08-05T11:59:38;102034.19;;;23.56;36.16
68580;BME280;55555;52.136;5.424;2022-08-05T12:02:15;102042.94;;;23.32;38.51
68580;BME280;55555;52.136;5.424;2022-08-05T12:04:58;102043.47;;;23.50;36.49
68580;BME280;55555;52.136;5.424;2022-08-05T12:07:35;102055.59;;;23.38;38.51
68580;BME280;55555;52.136;5.424;2022-08-05T12:10:29;102048.44;;;23.37;39.55
68580;BME280;55555;52.136;5.424;2022-08-05T12:13:11;102051.19;;;23.37;37.87
68580;BME280;55555;52.136;5.424;2022-08-05T12:15:44;102057.22;;;23.29;41.25
68580;BME280;55555;52.136;5.424;2022-08-05T12:18:24;102059.72;;;23.51;40.65
68580;BME280;55555;52.136;5.424;2022-08-05T12:21:31;102058.59;;;23.32;39.90
68580;BME280;55555;52.136;5.424;2022-08-05T12:24:13;102064.66;;;23.44;40.98
68580;BME280;55555;52.136;5.424;2022-08-05T12:26:47;102066.97;;;23.77;40.70
68580;BME280;55555;52.136;5.424;2022-08-05T12:29:18;102077.09;;;23.62;39.72
68580;BME280;55555;52.136;5.424;2022-08-05T12:31:56;102076.47;;;23.34;42.43
68580;BME280;55555;52.136;5.424;2022-08-05T12:34:33;102079.28;;;23.55;40.92
68580;BME280;55555;52.136;5.424;2022-08-05T12:37:08;102082.00;;;23.39;41.81
68580;BME280;55555;52.136;5.424;2022-08-05T12:39:43;102084.75;;;23.44;41.97
68580;BME280;55555;52.136;5.424;2022-08-05T12:42:17;102089.13;;;23.45;43.03
68580;BME280;55555;52.136;5.424;2022-08-05T12:44:46;102098.22;;;23.46;43.90
68580;BME280;55555;52.136;5.424;2022-08-05T12:47:28;102094.03;;;23.23;45.17
68580;BME280;55555;52.136;5.424;2022-08-05T12:49:57;102109.41;;;23.14;45.55
68580;BME280;55555;52.136;5.424;2022-08-05T12:52:33;102099.00;;;23.26;43.46
68580;BME280;55555;52.136;5.424;2022-08-05T12:55:22;102100.16;;;23.35;44.96
68580;BME280;55555;52.136;5.424;2022-08-05T12:57:56;102098.44;;;23.19;43.48
68580;BME280;55555;52.136;5.424;2022-08-05T13:00:45;102108.94;;;23.42;44.62
68580;BME280;55555;52.136;5.424;2022-08-05T13:03:36;102111.16;;;23.51;45.75
68580;BME280;55555;52.136;5.424;2022-08-05T13:06:12;102111.63;;;23.17;42.96
68580;BME280;55555;52.136;5.424;2022-08-05T13:08:45;102109.75;;;23.28;44.13
68580;BME280;55555;52.136;5.424;2022-08-05T13:11:21;102118.31;;;23.36;46.32
68580;BME280;55555;52.136;5.424;2022-08-05T13:16:50;102123.94;;;23.77;44.13
68580;BME280;55555;52.136;5.424;2022-08-05T13:19:26;102121.53;;;23.18;44.20
68580;BME280;55555;52.136;5.424;2022-08-05T13:22:13;102130.38;;;23.30;45.46
68580;BME280;55555;52.136;5.424;2022-08-05T13:24:55;102117.38;;;23.16;46.41
68580;BME280;55555;52.136;5.424;2022-08-05T13:27:38;102117.75;;;23.39;47.32
68580;BME280;55555;52.136;5.424;2022-08-05T13:30:17;102111.72;;;23.53;43.83
68580;BME280;55555;52.136;5.424;2022-08-05T13:33:01;102122.44;;;23.44;46.41
68580;BME280;55555;52.136;5.424;2022-08-05T13:35:29;102133.09;;;23.20;44.15
68580;BME280;55555;52.136;5.424;2022-08-05T13:38:16;102126.56;;;23.36;43.16
68580;BME280;55555;52.136;5.424;2022-08-05T13:40:59;102133.44;;;23.44;43.41
68580;BME280;55555;52.136;5.424;2022-08-05T13:43:26;102135.16;;;23.55;43.99
68580;BME280;55555;52.136;5.424;2022-08-05T13:46:14;102134.91;;;23.67;45.14
68580;BME280;55555;52.136;5.424;2022-08-05T13:49:01;102140.25;;;23.26;44.92
68580;BME280;55555;52.136;5.424;2022-08-05T13:51:31;102147.72;;;23.41;43.08
68580;BME280;55555;52.136;5.424;2022-08-05T13:54:07;102149.66;;;23.45;42.92
68580;BME280;55555;52.136;5.424;2022-08-05T13:56:39;102141.00;;;23.11;43.36
68580;BME280;55555;52.136;5.424;2022-08-05T13:59:19;102146.47;;;23.06;41.19
68580;BME280;55555;52.136;5.424;2022-08-05T14:02:00;102143.16;;;22.99;44.47
68580;BME280;55555;52.136;5.424;2022-08-05T14:04:29;102143.78;;;22.69;44.42
68580;BME280;55555;52.136;5.424;2022-08-05T14:07:19;102149.94;;;22.82;44.28
68580;BME280;55555;52.136;5.424;2022-08-05T14:10:11;102157.34;;;22.81;44.66